Hartford, Connecticut
Traffic Map
Current Weather Conditions
Hartford, Connecticut
Overcast
Overcast

Feels Like: -2°
Wind Chill: -2° Ceiling: 2000
Heat Index: Visibility: 7mi
Dew Point: -1° Wind: 7mph
Humidity: 85% Direction: 20° (NNE)
Pressure: 30.35in Gusts: 0mph
Raw Report DataKHFD 220553Z AUTO 02006KT 7SM BKN020 OVC046 01/M01 A3035 RMK AO2 SLP277 60000 T00111011 10011 20006 58002
Traffic Incident Summary
Active as of:
Severity:
Category:
InformationThere was an issue retrieving the traffic information for this location. Please try a different location or try again shortly.
Advertisements
Track Severe Weather on mobile